Time;durP1;ratioP1;P1;durP2;ratioP2;P2;SDS_P1;SDS_P2;PMS_P1;PMS_P2;Temp;Humidity;BMP_temperature;BMP_pressure;BME280_temperature;BME280_humidity;BME280_pressure;Samples;Min_cycle;Max_cycle;Signal;HPM_P1;HPM_P2
2024/02/18 00:00:14;;;;;;;24.85;5.10;;;13.50;99.90;;;;;;7416430;19;20010;-80
2024/02/18 00:02:44;;;;;;;13.30;4.95;;;13.50;99.90;;;;;;7420809;19;20002;-80
2024/02/18 00:05:14;;;;;;;13.77;4.45;;;13.40;99.90;;;;;;7420936;19;20025;-80
2024/02/18 00:07:42;;;;;;;18.42;4.60;;;13.40;99.90;;;;;;7439599;19;20010;-79
2024/02/18 00:10:12;;;;;;;11.23;4.00;;;13.40;99.90;;;;;;7420600;19;20003;-79
2024/02/18 00:12:40;;;;;;;11.90;4.50;;;13.40;99.90;;;;;;7416633;19;20043;-80
2024/02/18 00:15:12;;;;;;;13.48;3.65;;;13.40;99.90;;;;;;7415870;19;20031;-81
2024/02/18 00:17:41;;;;;;;18.05;3.92;;;13.40;99.90;;;;;;7407675;19;20003;-79
2024/02/18 00:20:12;;;;;;;11.32;3.45;;;13.40;99.90;;;;;;7387801;19;20342;-79
2024/02/18 00:22:42;;;;;;;14.73;3.70;;;13.40;99.90;;;;;;7408579;19;20010;-79
2024/02/18 00:25:11;;;;;;;12.27;3.25;;;13.40;99.90;;;;;;7386143;19;20210;-79
2024/02/18 00:27:40;;;;;;;15.27;4.07;;;13.30;99.90;;;;;;7387014;19;20397;-79
2024/02/18 00:30:13;;;;;;;15.65;4.07;;;13.30;99.90;;;;;;7387688;19;20006;-79
2024/02/18 00:32:41;;;;;;;13.88;3.47;;;13.20;99.90;;;;;;7386916;19;20031;-79
2024/02/18 00:35:10;;;;;;;12.95;3.42;;;13.20;99.90;;;;;;7385840;19;20002;-79
2024/02/18 00:37:39;;;;;;;10.23;3.85;;;13.20;99.90;;;;;;7406674;19;20378;-79
2024/02/18 00:40:10;;;;;;;15.60;3.92;;;13.20;99.90;;;;;;7387285;19;20028;-80
2024/02/18 00:42:39;;;;;;;9.88;3.42;;;13.20;99.90;;;;;;7397259;19;20003;-79
2024/02/18 00:45:09;;;;;;;13.27;3.90;;;13.20;99.90;;;;;;7401095;19;20015;-79
2024/02/18 00:47:40;;;;;;;14.82;4.00;;;13.20;99.90;;;;;;7402302;19;20014;-80
2024/02/18 00:50:11;;;;;;;14.35;3.90;;;13.10;99.90;;;;;;7405377;19;20007;-79
2024/02/18 00:52:40;;;;;;;13.60;3.33;;;13.10;99.90;;;;;;7424743;19;20003;-79
2024/02/18 00:55:09;;;;;;;11.93;3.35;;;13.20;99.90;;;;;;7394913;19;20011;-81
2024/02/18 00:57:38;;;;;;;9.60;3.90;;;13.20;99.90;;;;;;7390300;19;20018;-80
2024/02/18 01:00:10;;;;;;;14.73;4.05;;;13.20;99.90;;;;;;7387813;19;20044;-80
2024/02/18 01:02:41;;;;;;;14.25;4.40;;;13.20;99.90;;;;;;7383964;19;20007;-80
2024/02/18 01:05:11;;;;;;;15.43;4.70;;;13.10;99.90;;;;;;7385785;19;20014;-79
2024/02/18 01:07:40;;;;;;;14.60;4.22;;;13.10;99.90;;;;;;7404484;19;20007;-78
2024/02/18 01:10:10;;;;;;;10.18;4.00;;;13.10;99.90;;;;;;7384139;19;20054;-78
2024/02/18 01:12:39;;;;;;;16.17;4.47;;;13.10;99.90;;;;;;7383744;19;20007;-79
2024/02/18 01:15:10;;;;;;;16.33;3.92;;;13.10;99.90;;;;;;7384624;19;20006;-79
2024/02/18 01:17:41;;;;;;;15.18;4.93;;;13.10;99.90;;;;;;7388366;19;20040;-80
2024/02/18 01:20:10;;;;;;;;;;;13.20;99.90;;;;;;7383470;19;20003;-80
2024/02/18 01:22:39;;;;;;;17.17;4.80;;;13.20;99.90;;;;;;7406406;19;19915;-78
2024/02/18 01:25:09;;;;;;;10.05;3.92;;;13.20;99.90;;;;;;7384323;19;20006;-80
2024/02/18 01:27:38;;;;;;;13.73;4.07;;;13.20;99.90;;;;;;7383483;19;20084;-80
2024/02/18 01:30:08;;;;;;;7.78;3.67;;;13.20;99.90;;;;;;7379654;19;20011;-81
2024/02/18 01:32:37;;;;;;;14.32;4.10;;;13.20;99.90;;;;;;7382577;19;20353;-81
2024/02/18 01:35:09;;;;;;;13.25;3.28;;;13.20;99.90;;;;;;7410038;19;20031;-81
2024/02/18 01:37:38;;;;;;;27.10;6.05;;;13.10;99.90;;;;;;7385725;19;20031;-79
2024/02/18 01:40:09;;;;;;;17.52;6.50;;;13.10;99.90;;;;;;7387453;19;20010;-81
2024/02/18 01:42:40;;;;;;;24.60;6.47;;;13.10;99.90;;;;;;7386458;19;20243;-79
2024/02/18 01:45:11;;;;;;;;;;;13.10;99.90;;;;;;7383115;19;20007;-80
2024/02/18 01:47:42;;;;;;;22.75;6.50;;;13.10;99.90;;;;;;7381936;19;20544;-79
2024/02/18 01:50:19;;;;;;;;;;;13.10;99.90;;;;;;7409893;19;20002;-82
2024/02/18 01:52:51;;;;;;;16.20;4.38;;;13.10;99.90;;;;;;7389968;19;19927;-80
2024/02/18 01:55:21;;;;;;;12.73;3.88;;;13.10;99.90;;;;;;7384641;19;20082;-81
2024/02/18 01:57:50;;;;;;;12.35;3.38;;;13.10;99.90;;;;;;7381892;19;20007;-81
2024/02/18 02:00:20;;;;;;;11.90;3.97;;;13.10;99.90;;;;;;7382044;19;20078;-80
2024/02/18 02:02:52;;;;;;;12.68;4.30;;;13.10;99.90;;;;;;7380716;19;20003;-79
2024/02/18 02:05:24;;;;;;;10.88;4.20;;;13.10;99.90;;;;;;7380908;19;20010;-79
2024/02/18 02:07:53;;;;;;;19.95;4.43;;;13.00;99.90;;;;;;7402943;19;20018;-80
2024/02/18 02:10:22;;;;;;;16.08;4.72;;;13.00;99.90;;;;;;7382167;19;20010;-81
2024/02/18 02:12:51;;;;;;;9.68;4.45;;;13.00;99.90;;;;;;7381994;19;20002;-80
2024/02/18 02:15:21;;;;;;;17.75;5.05;;;13.00;99.90;;;;;;7381528;19;20003;-78
2024/02/18 02:17:50;;;;;;;11.25;4.60;;;13.10;99.90;;;;;;7383670;19;20003;-80
2024/02/18 02:20:19;;;;;;;15.35;5.43;;;13.10;99.90;;;;;;7382353;19;20023;-79
2024/02/18 02:22:50;;;;;;;16.67;5.82;;;13.10;99.90;;;;;;7403290;19;20015;-79
2024/02/18 02:25:19;;;;;;;;;;;13.10;99.90;;;;;;7384457;19;20361;-80
2024/02/18 02:27:56;;;;;;;13.65;5.50;;;13.20;99.90;;;;;;7381861;19;19979;-80
2024/02/18 02:30:27;;;;;;;16.55;5.28;;;13.20;99.90;;;;;;7381014;19;19999;-80
2024/02/18 02:32:56;;;;;;;;;;;13.20;99.90;;;;;;7383290;19;20031;-79
2024/02/18 02:35:28;;;;;;;14.52;5.28;;;13.20;99.90;;;;;;7384158;19;19924;-79
2024/02/18 02:38:00;;;;;;;13.50;5.03;;;13.20;99.90;;;;;;7405604;19;20007;-79
2024/02/18 02:40:29;;;;;;;14.48;5.15;;;13.20;99.90;;;;;;7381695;19;20066;-80
2024/02/18 02:42:57;;;;;;;14.77;5.50;;;13.10;99.90;;;;;;7385003;19;20019;-79
2024/02/18 02:45:29;;;;;;;13.75;5.43;;;13.10;99.90;;;;;;7383070;19;20023;-80
2024/02/18 02:47:57;;;;;;;12.95;5.80;;;13.10;99.90;;;;;;7385161;19;20353;-81
2024/02/18 02:50:26;;;;;;;19.92;5.80;;;13.10;99.90;;;;;;7384063;19;20002;-79
2024/02/18 02:52:55;;;;;;;13.45;5.57;;;13.10;99.90;;;;;;7403211;19;20007;-81
2024/02/18 02:55:23;;;;;;;17.70;5.45;;;13.00;99.90;;;;;;7382275;19;20054;-81
2024/02/18 02:57:53;;;;;;;11.73;4.97;;;13.00;99.90;;;;;;7381789;19;20491;-81
2024/02/18 03:00:22;;;;;;;12.25;5.32;;;13.00;99.90;;;;;;7384653;19;20023;-80
2024/02/18 03:02:54;;;;;;;15.88;4.88;;;13.00;99.90;;;;;;7383177;19;20035;-81
2024/02/18 03:05:23;;;;;;;16.88;5.00;;;13.00;99.90;;;;;;7392169;19;20002;-80
2024/02/18 03:07:51;;;;;;;20.75;4.88;;;13.00;99.90;;;;;;7404452;19;20071;-80
2024/02/18 03:10:20;;;;;;;10.50;4.13;;;13.10;99.90;;;;;;7395575;19;20003;-78
2024/02/18 03:12:49;;;;;;;18.55;4.25;;;13.00;99.90;;;;;;7402986;19;20030;-78
2024/02/18 03:15:18;;;;;;;13.70;4.45;;;13.00;99.90;;;;;;7396344;19;20006;-79
2024/02/18 03:17:47;;;;;;;17.48;4.00;;;13.00;99.90;;;;;;7396018;19;20010;-78
2024/02/18 03:20:19;;;;;;;12.10;3.97;;;13.10;99.90;;;;;;7414316;19;20002;-79
2024/02/18 03:22:48;;;;;;;13.50;4.60;;;13.10;99.90;;;;;;7389818;19;19999;-79
2024/02/18 03:25:16;;;;;;;14.75;3.95;;;13.10;99.90;;;;;;7382048;19;20003;-80
2024/02/18 03:27:45;;;;;;;20.23;4.30;;;13.20;99.90;;;;;;7381512;19;20244;-79
2024/02/18 03:30:14;;;;;;;9.23;3.92;;;13.20;99.90;;;;;;7383628;19;20014;-78
2024/02/18 03:32:44;;;;;;;16.45;3.88;;;13.20;99.90;;;;;;7383665;19;20018;-80
2024/02/18 03:35:13;;;;;;;16.88;4.53;;;13.20;99.90;;;;;;7402327;19;20017;-78
2024/02/18 03:37:44;;;;;;;11.40;4.28;;;13.30;99.90;;;;;;7381082;19;20002;-78
2024/02/18 03:40:14;;;;;;;11.73;3.42;;;13.20;99.90;;;;;;7379679;19;20062;-78
2024/02/18 03:42:43;;;;;;;11.88;3.75;;;13.30;99.90;;;;;;7381621;19;20015;-79
2024/02/18 03:45:11;;;;;;;16.60;3.53;;;13.30;99.90;;;;;;7381322;19;20393;-77
2024/02/18 03:47:40;;;;;;;7.95;2.95;;;13.30;99.90;;;;;;7379441;19;20014;-79
2024/02/18 03:50:10;;;;;;;20.55;4.00;;;13.30;99.90;;;;;;7401832;19;20024;-79
2024/02/18 03:52:39;;;;;;;10.93;3.80;;;13.30;99.90;;;;;;7379091;19;20049;-78
2024/02/18 03:55:10;;;;;;;11.00;3.78;;;13.30;99.90;;;;;;7385718;19;19999;-79
2024/02/18 03:57:38;;;;;;;;;;;13.30;99.90;;;;;;7386554;19;20015;-79
2024/02/18 04:00:09;;;;;;;14.82;3.25;;;13.30;99.90;;;;;;7386038;19;20026;-79
2024/02/18 04:06:11;;;;;;;;;;;;;;;;;;;;;
2024/02/18 04:08:42;;;;;;;7.30;3.72;;;13.30;99.90;;;;;;7390520;19;20006;-82
2024/02/18 04:36:27;;;;;;;15.07;3.70;;;13.20;99.90;;;;;;7417054;19;20047;-81
2024/02/18 04:42:24;;;;;;;10.07;3.40;;;13.20;99.90;;;;;;7406517;19;20003;-81
2024/02/18 04:48:51;;;;;;;12.95;4.38;;;13.20;99.90;;;;;;7433563;19;20019;-81
2024/02/18 05:02:46;;;;;;;;;;;;;;;;;;;;;
2024/02/18 05:08:27;;;;;;;11.35;3.25;;;13.20;99.90;;;;;;7435298;19;20106;-81
2024/02/18 05:11:21;;;;;;;10.60;3.63;;;13.20;99.90;;;;;;7416137;19;20016;-80
2024/02/18 05:16:50;;;;;;;;;;;;;;;;;;;;;
2024/02/18 05:19:42;;;;;;;12.30;3.70;;;13.30;99.90;;;;;;7418229;19;20007;-81
2024/02/18 05:25:23;;;;;;;9.82;3.55;;;13.30;99.90;;;;;;7418558;19;19919;-80
2024/02/18 05:27:54;;;;;;;17.90;3.95;;;13.20;99.90;;;;;;7414773;19;20013;-80
2024/02/18 05:31:08;;;;;;;10.13;3.97;;;13.20;99.90;;;;;;7417161;19;20017;-81
2024/02/18 05:36:56;;;;;;;17.25;4.13;;;13.20;99.90;;;;;;7415439;19;20035;-80
2024/02/18 05:40:03;;;;;;;19.42;3.92;;;13.30;99.90;;;;;;7414012;19;20036;-81
2024/02/18 05:43:05;;;;;;;14.85;3.33;;;13.20;99.90;;;;;;7408035;19;20010;-81
2024/02/18 05:49:49;;;;;;;10.95;3.45;;;13.20;99.90;;;;;;7416954;19;20013;-80
2024/02/18 05:55:14;;;;;;;19.10;3.97;;;13.20;99.90;;;;;;7411990;19;20737;-79
2024/02/18 05:57:42;;;;;;;14.70;3.33;;;13.20;99.90;;;;;;7410599;19;20014;-79
2024/02/18 06:00:13;;;;;;;10.68;3.33;;;13.20;99.90;;;;;;7409552;19;20106;-79
2024/02/18 06:02:44;;;;;;;13.95;3.33;;;13.20;99.90;;;;;;7411717;19;20006;-80
2024/02/18 06:05:17;;;;;;;10.95;3.63;;;13.20;99.90;;;;;;7434661;19;20023;-78
2024/02/18 06:07:47;;;;;;;15.02;3.85;;;13.20;99.90;;;;;;7401035;19;20011;-79
2024/02/18 06:10:33;;;;;;;11.13;4.45;;;13.30;99.90;;;;;;7383737;19;20019;-79
2024/02/18 06:13:02;;;;;;;14.75;3.47;;;13.30;99.90;;;;;;7384787;19;20007;-79
2024/02/18 06:15:32;;;;;;;13.32;3.58;;;13.30;99.90;;;;;;7387922;19;20103;-79
2024/02/18 06:18:03;;;;;;;11.07;3.63;;;13.30;99.90;;;;;;7385037;19;20022;-78
2024/02/18 06:20:47;;;;;;;14.98;3.95;;;13.30;99.90;;;;;;7406105;19;20383;-79
2024/02/18 06:23:56;;;;;;;;;;;;;;;;;;;;;
2024/02/18 06:27:04;;;;;;;10.18;2.92;;;13.30;99.90;;;;;;7362258;19;20714;-81
2024/02/18 06:30:04;;;;;;;12.05;4.10;;;13.30;99.90;;;;;;7412112;19;20011;-82
2024/02/18 06:32:40;;;;;;;7.57;3.10;;;13.30;99.90;;;;;;7388581;19;20087;-78
2024/02/18 06:35:43;;;;;;;11.38;3.38;;;13.30;99.90;;;;;;7386627;19;20010;-79
2024/02/18 06:38:24;;;;;;;10.70;3.13;;;13.30;99.90;;;;;;7384052;19;20091;-80
2024/02/18 06:40:53;;;;;;;12.60;3.83;;;13.20;99.90;;;;;;7387223;19;20007;-78
2024/02/18 06:43:21;;;;;;;9.75;3.55;;;13.30;99.90;;;;;;7384017;19;20104;-78
2024/02/18 06:45:50;;;;;;;10.50;3.67;;;13.30;99.90;;;;;;7383484;19;20002;-78
2024/02/18 06:48:19;;;;;;;11.35;3.85;;;13.20;99.90;;;;;;7383793;19;20045;-79
2024/02/18 06:50:50;;;;;;;11.63;3.88;;;13.20;99.90;;;;;;7383655;19;20066;-79
2024/02/18 06:53:19;;;;;;;9.00;3.90;;;13.20;99.90;;;;;;7404048;19;20282;-79
2024/02/18 06:55:48;;;;;;;11.57;3.63;;;13.20;99.90;;;;;;7382420;19;20011;-79
2024/02/18 06:58:19;;;;;;;13.63;3.22;;;13.30;99.90;;;;;;7383842;19;20031;-78
2024/02/18 07:00:48;;;;;;;12.75;3.25;;;13.30;99.90;;;;;;7383960;19;19998;-78
2024/02/18 07:03:17;;;;;;;21.08;3.53;;;13.30;99.90;;;;;;7384269;19;20034;-79
2024/02/18 07:05:45;;;;;;;8.15;3.55;;;13.20;99.90;;;;;;7384727;19;20022;-78
2024/02/18 07:08:17;;;;;;;13.23;3.30;;;13.20;99.90;;;;;;7406689;19;20038;-79
2024/02/18 07:10:45;;;;;;;10.25;3.70;;;13.20;99.90;;;;;;7388096;19;20031;-79
2024/02/18 07:13:16;;;;;;;9.63;3.60;;;13.20;99.90;;;;;;7387459;19;20006;-78
2024/02/18 07:15:44;;;;;;;11.15;3.33;;;13.20;99.90;;;;;;7386704;19;20003;-79
2024/02/18 07:18:14;;;;;;;12.88;3.63;;;13.20;99.90;;;;;;7382435;19;20559;-78
2024/02/18 07:20:42;;;;;;;15.02;3.88;;;13.20;99.90;;;;;;7403518;19;20015;-78
2024/02/18 07:23:11;;;;;;;18.17;3.85;;;13.20;99.90;;;;;;7386337;19;20007;-78
2024/02/18 07:25:44;;;;;;;10.15;3.65;;;13.20;99.90;;;;;;7387193;19;20019;-79
2024/02/18 07:28:15;;;;;;;11.85;3.55;;;13.20;99.90;;;;;;7384738;19;20210;-79
2024/02/18 07:30:44;;;;;;;13.80;3.42;;;13.30;99.90;;;;;;7384443;19;20010;-78
2024/02/18 07:33:13;;;;;;;14.15;3.30;;;13.30;99.90;;;;;;7383807;19;20015;-79
2024/02/18 07:35:42;;;;;;;11.27;3.40;;;13.30;99.90;;;;;;7405479;19;20240;-79
2024/02/18 07:38:11;;;;;;;14.38;3.80;;;13.30;99.90;;;;;;7383598;19;20014;-78
2024/02/18 07:40:42;;;;;;;8.40;3.13;;;13.30;99.90;;;;;;7384513;19;20103;-79
2024/02/18 07:43:11;;;;;;;9.25;3.50;;;13.20;99.90;;;;;;7383427;19;19999;-80
2024/02/18 07:45:40;;;;;;;7.63;3.15;;;13.20;99.90;;;;;;7382197;19;20003;-79
2024/02/18 07:48:09;;;;;;;9.95;3.50;;;13.30;99.90;;;;;;7383761;19;20011;-79
2024/02/18 07:50:38;;;;;;;10.15;3.08;;;13.30;99.90;;;;;;7403900;19;20006;-78
2024/02/18 07:53:07;;;;;;;14.82;3.28;;;13.30;99.90;;;;;;7383097;19;20003;-78
2024/02/18 07:55:37;;;;;;;6.75;2.50;;;13.30;99.90;;;;;;7382397;19;20009;-81
2024/02/18 07:58:08;;;;;;;9.20;3.20;;;13.30;99.90;;;;;;7382214;19;20006;-79
2024/02/18 08:00:37;;;;;;;;;;;13.30;99.90;;;;;;7385277;19;20094;-80
2024/02/18 08:03:06;;;;;;;16.73;5.93;;;13.40;99.90;;;;;;7387535;19;19911;-79
2024/02/18 08:05:36;;;;;;;10.57;3.22;;;13.30;99.90;;;;;;7412575;19;20097;-80
2024/02/18 08:08:05;;;;;;;19.80;3.50;;;13.30;99.90;;;;;;7386764;19;20015;-81
2024/02/18 08:10:34;;;;;;;7.68;3.22;;;13.30;99.90;;;;;;7387385;19;20243;-78
2024/02/18 08:13:03;;;;;;;16.90;4.28;;;13.30;99.90;;;;;;7390201;19;20014;-79
2024/02/18 08:15:34;;;;;;;7.40;3.30;;;13.30;99.90;;;;;;7396705;19;20018;-78
2024/02/18 08:18:03;;;;;;;8.63;2.80;;;13.40;99.90;;;;;;7399284;19;20009;-78
2024/02/18 08:20:32;;;;;;;11.23;3.70;;;13.40;99.90;;;;;;7425657;19;20007;-78
2024/02/18 08:23:01;;;;;;;10.15;3.58;;;13.50;99.90;;;;;;7405038;19;20006;-79
2024/02/18 08:25:30;;;;;;;13.68;3.40;;;13.50;99.90;;;;;;7387732;19;20007;-78
2024/02/18 08:27:58;;;;;;;9.68;3.08;;;13.50;99.90;;;;;;7384443;19;20010;-79
2024/02/18 08:30:27;;;;;;;9.68;3.15;;;13.50;99.90;;;;;;7381054;19;20358;-80
2024/02/18 08:32:59;;;;;;;11.70;3.25;;;13.50;99.90;;;;;;7397960;19;20011;-79
2024/02/18 08:35:27;;;;;;;14.05;3.25;;;13.50;99.90;;;;;;7403156;19;20027;-79
2024/02/18 08:37:56;;;;;;;8.60;3.10;;;13.60;99.90;;;;;;7384414;19;20074;-79
2024/02/18 08:40:25;;;;;;;8.32;3.15;;;13.60;99.90;;;;;;7382962;19;20038;-79
2024/02/18 08:42:54;;;;;;;10.82;3.33;;;13.60;99.90;;;;;;7382534;19;20010;-79
2024/02/18 08:45:23;;;;;;;20.92;3.75;;;13.60;99.90;;;;;;7382114;19;20015;-80
2024/02/18 08:47:51;;;;;;;14.48;3.92;;;13.70;99.90;;;;;;7402116;19;20007;-79
2024/02/18 08:50:23;;;;;;;16.20;3.95;;;13.70;99.90;;;;;;7381691;19;20014;-78
2024/02/18 08:52:51;;;;;;;15.40;3.67;;;13.70;99.90;;;;;;7380610;19;20015;-79
2024/02/18 08:55:20;;;;;;;7.68;2.65;;;13.70;99.90;;;;;;7381565;19;20024;-79
2024/02/18 08:57:50;;;;;;;12.57;3.45;;;13.70;99.90;;;;;;7384582;19;20263;-81
2024/02/18 09:00:20;;;;;;;12.73;3.08;;;13.70;99.90;;;;;;7386097;19;20026;-79
2024/02/18 09:02:48;;;;;;;13.95;3.25;;;13.70;99.90;;;;;;7405241;19;20021;-79
2024/02/18 09:05:17;;;;;;;7.70;2.75;;;13.60;99.90;;;;;;7381005;19;20011;-80
2024/02/18 09:07:49;;;;;;;14.27;3.47;;;13.70;99.90;;;;;;7381412;19;20015;-78
2024/02/18 09:10:17;;;;;;;;;;;13.50;99.90;;;;;;7382816;19;20011;-79
2024/02/18 09:12:46;;;;;;;13.35;3.00;;;13.60;99.90;;;;;;7382916;19;20566;-79
2024/02/18 09:15:15;;;;;;;10.52;2.92;;;13.30;99.90;;;;;;7382097;19;20007;-78
2024/02/18 09:17:43;;;;;;;9.18;3.28;;;13.40;99.90;;;;;;7401457;19;20263;-80
2024/02/18 09:20:13;;;;;;;12.52;3.45;;;13.40;99.90;;;;;;7380184;19;19998;-80
2024/02/18 09:22:42;;;;;;;10.38;3.03;;;13.40;99.90;;;;;;7380700;19;20024;-79
2024/02/18 09:25:13;;;;;;;15.15;3.38;;;13.30;99.90;;;;;;7379472;19;20010;-79
2024/02/18 09:27:42;;;;;;;11.98;3.47;;;13.20;99.90;;;;;;7378691;19;20003;-80
2024/02/18 09:30:12;;;;;;;13.50;3.85;;;13.20;99.90;;;;;;7380050;19;20013;-80
2024/02/18 09:32:44;;;;;;;13.73;3.03;;;13.20;99.90;;;;;;7401403;19;20026;-81
2024/02/18 09:35:13;;;;;;;14.18;3.58;;;13.30;99.90;;;;;;7378468;19;20350;-79
2024/02/18 09:37:42;;;;;;;13.30;3.03;;;13.20;99.90;;;;;;7378003;19;20728;-81
2024/02/18 09:40:14;;;;;;;9.30;3.30;;;13.30;99.90;;;;;;7379927;19;20023;-81
2024/02/18 09:42:44;;;;;;;15.85;3.22;;;13.30;99.90;;;;;;7379798;19;20006;-81
2024/02/18 09:45:14;;;;;;;10.82;3.53;;;13.30;99.90;;;;;;7384333;19;20026;-81
2024/02/18 09:47:47;;;;;;;21.63;3.45;;;13.20;99.90;;;;;;7408408;19;20006;-80
2024/02/18 09:50:19;;;;;;;11.68;3.28;;;13.10;99.90;;;;;;7386513;19;20006;-80
2024/02/18 09:52:49;;;;;;;11.68;3.65;;;13.00;99.90;;;;;;7388294;19;20377;-81
2024/02/18 09:55:20;;;;;;;15.85;3.38;;;13.10;99.90;;;;;;7390279;19;20368;-80
2024/02/18 09:57:50;;;;;;;9.05;3.30;;;13.20;99.90;;;;;;7388414;19;20002;-80
2024/02/18 10:00:20;;;;;;;13.68;3.13;;;13.20;99.90;;;;;;7385868;19;20228;-81
2024/02/18 10:02:51;;;;;;;16.38;3.17;;;13.20;99.90;;;;;;7408105;19;20011;-81
2024/02/18 10:05:20;;;;;;;15.70;3.58;;;13.30;99.90;;;;;;7392691;19;20088;-81
2024/02/18 10:08:02;;;;;;;16.27;3.50;;;13.40;99.90;;;;;;7391561;19;20018;-80
2024/02/18 10:10:37;;;;;;;12.82;3.67;;;13.30;99.90;;;;;;7390575;19;20030;-79
2024/02/18 10:13:24;;;;;;;12.32;3.60;;;13.30;99.90;;;;;;7388480;19;20424;-82
2024/02/18 10:19:14;;;;;;;10.60;3.05;;;13.10;99.90;;;;;;7385250;19;20388;-80
2024/02/18 10:21:44;;;;;;;12.45;3.58;;;13.00;99.90;;;;;;7387531;19;20010;-81
2024/02/18 10:24:13;;;;;;;10.82;3.83;;;13.20;99.90;;;;;;7386434;19;20011;-78
2024/02/18 10:44:17;;;;;;;;;;;;;;;;;;;;;
2024/02/18 10:46:58;;;;;;;15.80;4.03;;;13.60;99.90;;;;;;7389023;19;20019;-80
2024/02/18 10:49:33;;;;;;;14.18;3.70;;;13.30;99.90;;;;;;7389127;19;20010;-81
2024/02/18 10:52:14;;;;;;;15.00;3.83;;;13.40;99.90;;;;;;7392578;19;20031;-82
2024/02/18 10:55:03;;;;;;;13.60;3.78;;;13.30;99.90;;;;;;7389648;19;20006;-82
2024/02/18 10:57:37;;;;;;;16.80;3.95;;;13.30;99.90;;;;;;7389946;19;20020;-78
2024/02/18 11:00:12;;;;;;;14.02;4.07;;;13.40;99.90;;;;;;7403089;19;20015;-75
2024/02/18 11:02:59;;;;;;;15.55;3.55;;;13.40;99.90;;;;;;7382046;19;20027;-77
2024/02/18 11:05:34;;;;;;;17.42;4.40;;;13.40;99.90;;;;;;7382187;19;20006;-78
2024/02/18 11:08:04;;;;;;;11.10;3.78;;;13.30;99.90;;;;;;7382599;19;20500;-79
2024/02/18 11:10:33;;;;;;;35.80;6.65;;;13.10;99.90;;;;;;7380791;19;20041;-78
2024/02/18 11:13:02;;;;;;;15.68;3.80;;;13.20;99.90;;;;;;7381866;19;20058;-77
2024/02/18 11:15:31;;;;;;;9.02;3.42;;;13.20;99.90;;;;;;7380099;19;20031;-77
2024/02/18 11:18:04;;;;;;;18.25;3.90;;;13.10;99.90;;;;;;7398850;19;20074;-78
2024/02/18 11:20:34;;;;;;;14.35;3.72;;;12.90;99.90;;;;;;7381892;19;20017;-78
2024/02/18 11:23:03;;;;;;;17.45;3.63;;;12.90;99.90;;;;;;7377029;19;20007;-77
2024/02/18 11:25:35;;;;;;;16.10;4.07;;;13.00;99.90;;;;;;7382547;19;20002;-80
2024/02/18 11:28:04;;;;;;;10.45;3.38;;;13.20;99.90;;;;;;7382220;19;20122;-78
2024/02/18 11:30:33;;;;;;;15.07;4.20;;;13.30;99.90;;;;;;7382600;19;20007;-76
2024/02/18 11:33:04;;;;;;;9.63;3.60;;;13.30;99.90;;;;;;7403468;19;20010;-78
2024/02/18 11:35:35;;;;;;;11.93;3.50;;;13.40;99.90;;;;;;7383317;19;20014;-80
2024/02/18 11:38:04;;;;;;;10.95;3.45;;;13.10;99.90;;;;;;7382288;19;20026;-80
2024/02/18 11:40:35;;;;;;;13.57;3.50;;;13.10;99.90;;;;;;7384755;19;20022;-80
2024/02/18 11:43:04;;;;;;;12.40;4.13;;;13.20;99.90;;;;;;7385149;19;20007;-79
2024/02/18 11:46:10;;;;;;;;;;;;;;;;;;;;;
2024/02/18 11:48:42;;;;;;;18.30;3.50;;;13.30;99.90;;;;;;7387881;19;20354;-80
2024/02/18 11:51:15;;;;;;;12.07;4.47;;;13.40;99.90;;;;;;7404452;19;20007;-78
2024/02/18 11:53:44;;;;;;;13.75;3.78;;;13.20;99.90;;;;;;7384117;19;20038;-79
2024/02/18 11:56:14;;;;;;;19.73;6.15;;;13.20;99.90;;;;;;7384472;19;20007;-81
2024/02/18 11:58:48;;;;;;;14.02;5.78;;;13.30;99.90;;;;;;7385795;19;20256;-80
2024/02/18 12:01:19;;;;;;;13.15;3.35;;;13.40;99.90;;;;;;7387018;19;20079;-80
2024/02/18 12:18:08;;;;;;;10.88;3.13;;;13.00;99.90;;;;;;7400036;19;20010;-82
2024/02/18 12:23:56;;;;;;;10.82;2.60;;;13.00;99.90;;;;;;7362067;19;20066;-80
2024/02/18 12:26:36;;;;;;;13.25;2.60;;;13.20;99.90;;;;;;7405731;19;20013;-81
2024/02/18 12:29:05;;;;;;;10.90;4.07;;;13.20;99.90;;;;;;7385235;19;20043;-77
2024/02/18 12:31:34;;;;;;;24.02;5.07;;;13.00;99.90;;;;;;7385177;19;20366;-77
2024/02/18 12:34:06;;;;;;;13.23;3.30;;;13.20;99.90;;;;;;7386284;19;20007;-77
2024/02/18 12:36:34;;;;;;;13.45;3.00;;;13.20;99.90;;;;;;7387008;19;20014;-79
2024/02/18 12:39:05;;;;;;;17.60;2.95;;;13.10;99.90;;;;;;7407099;19;20003;-77
2024/02/18 12:41:36;;;;;;;7.55;3.17;;;13.20;99.90;;;;;;7387767;19;20006;-78
2024/02/18 12:44:07;;;;;;;11.00;2.80;;;13.00;99.90;;;;;;7392113;19;20034;-79
2024/02/18 12:47:03;;;;;;;12.30;3.25;;;13.20;99.90;;;;;;7389783;19;20119;-84
2024/02/18 12:49:51;;;;;;;15.88;3.20;;;13.20;99.90;;;;;;7389327;19;20019;-79
2024/02/18 12:55:30;;;;;;;10.18;3.08;;;13.20;99.90;;;;;;7388582;19;20010;-81
2024/02/18 12:58:10;;;;;;;7.90;2.92;;;12.90;99.90;;;;;;7388012;19;20023;-80
2024/02/18 13:01:00;;;;;;;9.27;3.20;;;13.00;99.90;;;;;;7385355;19;20032;-79
2024/02/18 13:04:04;;;;;;;14.18;3.70;;;13.10;99.90;;;;;;7397660;19;20088;-80
2024/02/18 13:06:38;;;;;;;16.48;3.25;;;13.10;99.90;;;;;;7386621;19;20003;-79
2024/02/18 13:09:08;;;;;;;7.72;2.60;;;13.20;99.90;;;;;;7405828;19;20066;-78
2024/02/18 13:11:37;;;;;;;11.18;2.67;;;13.10;99.90;;;;;;7384056;19;20049;-78
2024/02/18 13:14:06;;;;;;;6.10;2.92;;;13.30;99.90;;;;;;7383233;19;20010;-79
2024/02/18 13:16:34;;;;;;;8.77;3.13;;;13.20;99.90;;;;;;7384025;19;20019;-79
2024/02/18 13:19:03;;;;;;;12.52;3.28;;;13.10;99.90;;;;;;7387318;19;19999;-79
2024/02/18 13:21:34;;;;;;;6.53;2.75;;;13.00;99.90;;;;;;7410468;19;20007;-81
2024/02/18 13:24:14;;;;;;;7.38;3.05;;;13.10;99.90;;;;;;7412981;19;20069;-81
2024/02/18 13:30:08;;;;;;;6.72;2.75;;;13.20;99.90;;;;;;7399969;19;20543;-80
2024/02/18 13:35:54;;;;;;;9.40;3.25;;;13.30;99.90;;;;;;7374390;19;20023;-80
2024/02/18 13:38:34;;;;;;;12.80;2.88;;;13.30;99.90;;;;;;7391964;19;20006;-80
2024/02/18 13:41:41;;;;;;;9.35;2.78;;;13.40;99.90;;;;;;7394848;19;20021;-80
2024/02/18 13:47:23;;;;;;;;;;;;;;;;;;;;;
2024/02/18 13:50:20;;;;;;;;;;;;;;;;;;;;;
2024/02/18 13:53:04;;;;;;;6.35;3.65;;;13.70;99.90;;;;;;7393961;19;20010;-81
2024/02/18 13:55:38;;;;;;;21.95;3.30;;;13.60;99.90;;;;;;7392073;19;19998;-81
2024/02/18 13:58:11;;;;;;;11.10;3.22;;;13.80;99.90;;;;;;7391360;19;20275;-79
2024/02/18 14:00:51;;;;;;;10.68;3.28;;;13.80;99.90;;;;;;7387354;19;20368;-80
2024/02/18 14:03:33;;;;;;;4.47;3.08;;;13.60;99.90;;;;;;7411312;19;20007;-79
2024/02/18 14:06:34;;;;;;;;;;;;;;;;;;;;;
2024/02/18 14:09:06;;;;;;;13.55;3.08;;;13.60;99.90;;;;;;7389846;19;20024;-80
2024/02/18 14:12:06;;;;;;;;;;;;;;;;;;;;;
2024/02/18 14:15:06;;;;;;;;;;;;;;;;;;;;;
2024/02/18 14:17:38;;;;;;;9.55;3.53;;;13.70;99.90;;;;;;7387410;19;20388;-79
2024/02/18 14:20:17;;;;;;;8.98;3.80;;;13.30;99.90;;;;;;7389200;19;19999;-78
2024/02/18 14:22:52;;;;;;;12.05;3.70;;;13.50;99.90;;;;;;7388012;19;20027;-78
2024/02/18 14:25:30;;;;;;;13.50;4.05;;;13.60;99.90;;;;;;7389277;19;20031;-79
2024/02/18 14:28:11;;;;;;;;;;;;;;;;;;;;;
2024/02/18 14:30:54;;;;;;;;;;;;;;;;;;;;;
2024/02/18 14:36:41;;;;;;;6.65;3.42;;;13.50;99.90;;;;;;7346179;19;20007;-80
2024/02/18 14:39:37;;;;;;;;;;;;;;;;;;;;;
2024/02/18 14:42:13;;;;;;;9.27;3.47;;;13.20;99.90;;;;;;7390189;19;20829;-80
2024/02/18 14:44:54;;;;;;;;;;;;;;;;;;;;;
2024/02/18 14:47:34;;;;;;;10.20;3.38;;;13.40;99.90;;;;;;7387350;19;20010;-81
2024/02/18 14:50:15;;;;;;;;;;;;;;;;;;;;;
2024/02/18 14:53:06;;;;;;;7.53;3.40;;;13.50;99.90;;;;;;7385723;19;20356;-81
2024/02/18 14:55:55;;;;;;;;;;;;;;;;;;;;;
2024/02/18 14:58:40;;;;;;;4.55;3.00;;;13.50;99.90;;;;;;7386132;19;20963;-81
2024/02/18 15:01:24;;;;;;;;;;;;;;;;;;;;;
2024/02/18 15:03:59;;;;;;;5.78;3.58;;;13.40;99.90;;;;;;7387848;19;20011;-80
2024/02/18 15:06:53;;;;;;;7.32;4.28;;;13.60;99.90;;;;;;7408987;19;20130;-80
2024/02/18 15:09:40;;;;;;;;;;;;;;;;;;;;;
2024/02/18 15:12:24;;;;;;;;;;;;;;;;;;;;;
2024/02/18 15:15:16;;;;;;;9.13;3.78;;;13.90;99.90;;;;;;7386446;19;20009;-79
2024/02/18 15:17:50;;;;;;;;;;;13.80;99.90;;;;;;7386091;19;20015;-80
2024/02/18 15:20:32;;;;;;;7.82;2.92;;;13.80;99.90;;;;;;7405944;19;19978;-81
2024/02/18 15:23:17;;;;;;;;;;;;;;;;;;;;;
2024/02/18 15:25:51;;;;;;;4.05;2.70;;;13.90;99.90;;;;;;7386710;19;20080;-80
2024/02/18 15:34:44;;;;;;;7.32;3.20;;;13.90;99.90;;;;;;7385108;19;20260;-80
2024/02/18 15:37:17;;;;;;;4.05;2.40;;;13.60;99.90;;;;;;7387039;19;20031;-80
2024/02/18 15:40:11;;;;;;;4.00;2.50;;;13.70;99.90;;;;;;7400888;19;20059;-81
2024/02/18 15:42:47;;;;;;;4.75;3.03;;;13.60;99.90;;;;;;7409556;19;20025;-80
2024/02/18 15:45:39;;;;;;;4.82;2.70;;;13.60;99.90;;;;;;7389164;19;20101;-79